createdAt,value
2018-03-04T00:00:42.117Z,97.00
2018-03-04T00:03:17.935Z,97.50
2018-03-04T00:05:52.380Z,97.40
2018-03-04T00:08:27.004Z,97.20
2018-03-04T00:11:01.832Z,97.00
2018-03-04T00:13:36.637Z,97.00
2018-03-04T00:16:11.419Z,96.60
2018-03-04T00:18:46.322Z,96.60
2018-03-04T00:21:20.115Z,97.00
2018-03-04T00:23:55.155Z,97.00
2018-03-04T00:26:29.785Z,97.30
2018-03-04T00:29:05.388Z,97.30
2018-03-04T00:31:39.336Z,97.10
2018-03-04T00:34:16.204Z,97.10
2018-03-04T00:36:50.924Z,97.10
2018-03-04T00:39:25.884Z,97.00
2018-03-04T00:42:00.662Z,96.60
2018-03-04T00:44:34.800Z,96.40
2018-03-04T00:47:11.886Z,96.60
2018-03-04T00:49:47.044Z,97.00
2018-03-04T00:52:21.934Z,97.10
2018-03-04T00:54:56.976Z,97.10
2018-03-04T00:57:31.097Z,97.10
2018-03-04T01:00:05.127Z,97.00
2018-03-04T01:02:39.935Z,97.00
2018-03-04T01:05:17.541Z,97.00
2018-03-04T01:07:51.433Z,97.00
2018-03-04T01:10:28.011Z,97.10
2018-03-04T01:13:01.731Z,97.20
2018-03-04T01:15:37.960Z,97.10
2018-03-04T01:18:11.794Z,97.10
2018-03-04T01:20:47.546Z,96.50
2018-03-04T01:23:21.961Z,96.50
2018-03-04T01:25:57.482Z,96.30
2018-03-04T01:28:31.398Z,96.50
2018-03-04T01:31:08.488Z,96.50
2018-03-04T01:33:43.317Z,96.40
2018-03-04T01:36:18.032Z,96.30
2018-03-04T01:38:51.832Z,96.30
2018-03-04T01:41:26.148Z,96.60
2018-03-04T01:44:00.880Z,97.00
2018-03-04T01:46:35.924Z,97.00
2018-03-04T01:49:09.915Z,97.00
2018-03-04T01:51:52.750Z,97.00
2018-03-04T01:54:27.464Z,97.00
2018-03-04T01:57:01.571Z,96.90
2018-03-04T01:59:37.024Z,96.60
2018-03-04T02:02:11.748Z,96.80
2018-03-04T02:04:47.594Z,97.10
2018-03-04T02:07:22.422Z,97.30
2018-03-04T02:09:56.541Z,97.40
2018-03-04T02:12:30.391Z,98.00
2018-03-04T02:15:04.153Z,98.60
2018-03-04T02:17:38.561Z,98.30
2018-03-04T02:20:13.106Z,97.70
2018-03-04T02:22:48.424Z,97.90
2018-03-04T02:25:23.044Z,97.90
2018-03-04T02:27:58.913Z,97.70
2018-03-04T02:30:34.254Z,98.00
2018-03-04T02:33:08.464Z,98.00
2018-03-04T02:35:42.473Z,98.60
2018-03-04T02:38:17.397Z,98.30
2018-03-04T02:40:53.372Z,98.50
2018-03-04T02:43:28.276Z,98.60
2018-03-04T02:46:04.035Z,99.10
2018-03-04T02:48:38.448Z,99.70
2018-03-04T02:51:13.579Z,99.00
2018-03-04T03:06:42.780Z,98.30
2018-03-04T03:09:18.624Z,98.60
2018-03-04T03:11:52.416Z,98.90
2018-03-04T03:14:27.123Z,98.40
2018-03-04T03:17:01.659Z,98.90
2018-03-04T03:19:36.613Z,98.90
2018-03-04T03:22:10.404Z,98.50
2018-03-04T03:24:46.074Z,99.00
2018-03-04T03:27:20.585Z,99.50
2018-03-04T03:29:57.363Z,99.50
2018-03-04T03:32:32.176Z,98.90
2018-03-04T03:35:07.671Z,98.50
2018-03-04T03:37:42.354Z,98.80
2018-03-04T03:40:16.777Z,98.80
2018-03-04T03:42:51.272Z,98.70
2018-03-04T03:45:27.027Z,98.70
2018-03-04T03:48:02.084Z,98.70
2018-03-04T03:50:37.104Z,98.70
2018-03-04T03:53:19.936Z,99.30
2018-03-04T03:55:55.872Z,99.30
2018-03-04T03:58:30.740Z,99.90
2018-03-04T04:01:06.544Z,99.60
2018-03-04T04:03:40.666Z,99.60
2018-03-04T04:06:15.381Z,99.20
2018-03-04T04:08:49.308Z,99.40
2018-03-04T04:11:24.456Z,99.90
2018-03-04T04:13:58.745Z,99.90
2018-03-04T04:16:33.179Z,99.90
2018-03-04T04:19:08.420Z,99.90
2018-03-04T04:21:44.037Z,99.90
2018-03-04T04:24:18.579Z,99.90
2018-03-04T04:26:55.035Z,99.90
2018-03-04T04:29:29.984Z,99.90
2018-03-04T04:32:05.502Z,99.90
2018-03-04T04:34:39.641Z,99.90
2018-03-04T04:37:14.160Z,99.90
2018-03-04T04:39:48.994Z,99.90
2018-03-04T04:42:22.882Z,99.90
2018-03-04T04:44:57.617Z,99.90
2018-03-04T04:47:32.854Z,99.90
2018-03-04T04:50:07.356Z,99.90
2018-03-04T04:52:41.498Z,99.90
2018-03-04T04:55:17.535Z,99.90
2018-03-04T04:57:52.895Z,99.90
2018-03-04T05:00:27.820Z,99.90
2018-03-04T05:03:02.036Z,99.90
2018-03-04T05:05:36.963Z,99.90
2018-03-04T05:08:11.035Z,99.90
2018-03-04T05:10:46.015Z,99.90
2018-03-04T05:13:20.114Z,99.90
2018-03-04T05:15:54.755Z,99.90
2018-03-04T05:18:29.264Z,99.90
2018-03-04T05:21:03.880Z,99.90
2018-03-04T05:23:38.617Z,99.90
2018-03-04T05:26:14.393Z,99.90
2018-03-04T05:28:48.264Z,99.90
2018-03-04T05:31:22.175Z,99.90
2018-03-04T05:33:56.368Z,99.90
2018-03-04T05:36:30.795Z,99.90
2018-03-04T05:39:06.668Z,99.90
2018-03-04T05:41:41.092Z,99.90
2018-03-04T05:44:17.029Z,99.90
2018-03-04T05:46:51.654Z,99.90
2018-03-04T05:49:26.771Z,99.90
2018-03-04T05:52:00.395Z,99.90
2018-03-04T05:54:36.761Z,99.90
2018-03-04T05:57:10.864Z,99.90
2018-03-04T05:59:45.396Z,99.90
2018-03-04T06:02:19.916Z,99.90
2018-03-04T06:04:53.941Z,99.90
2018-03-04T06:07:28.647Z,99.90
2018-03-04T06:10:02.579Z,99.90
2018-03-04T06:12:39.128Z,99.90
2018-03-04T06:15:15.186Z,99.90
2018-03-04T06:17:50.411Z,99.90
2018-03-04T06:20:25.264Z,99.90
2018-03-04T06:23:00.381Z,99.90
2018-03-04T06:25:37.404Z,99.90
2018-03-04T06:28:12.203Z,99.90
2018-03-04T06:30:46.926Z,99.90
2018-03-04T06:33:20.730Z,99.90
2018-03-04T06:35:56.746Z,99.90
2018-03-04T06:38:32.850Z,99.90
2018-03-04T06:41:08.475Z,99.90
2018-03-04T06:43:43.829Z,99.90
2018-03-04T06:46:19.473Z,99.90
2018-03-04T06:48:54.721Z,99.90
2018-03-04T06:51:29.749Z,99.90
2018-03-04T06:54:05.389Z,99.90
2018-03-04T06:56:40.229Z,99.90
2018-03-04T06:59:15.453Z,99.90
2018-03-04T07:01:50.603Z,99.90
2018-03-04T07:04:26.536Z,99.90
2018-03-04T07:07:00.459Z,99.90
2018-03-04T07:09:34.979Z,99.90
2018-03-04T07:12:10.936Z,99.90
2018-03-04T07:14:45.875Z,99.90
2018-03-04T07:17:21.206Z,99.90
2018-03-04T07:19:55.516Z,99.90
2018-03-04T07:22:30.356Z,99.90
2018-03-04T07:25:07.556Z,99.90
2018-03-04T07:27:41.991Z,99.90
2018-03-04T07:30:16.284Z,99.90
2018-03-04T07:32:50.190Z,99.90
2018-03-04T07:35:28.913Z,99.90
2018-03-04T07:38:03.851Z,99.90
2018-03-04T07:40:38.069Z,99.90
2018-03-04T07:43:13.075Z,99.90
2018-03-04T07:45:47.184Z,99.90
2018-03-04T07:48:21.420Z,99.90
2018-03-04T07:50:58.789Z,99.90
2018-03-04T07:53:34.613Z,97.90
2018-03-04T07:56:08.528Z,97.90
2018-03-04T07:58:43.152Z,96.40
2018-03-04T08:01:16.987Z,96.40
2018-03-04T08:03:51.522Z,95.60
2018-03-04T08:06:27.149Z,95.60
2018-03-04T08:09:01.275Z,96.00
2018-03-04T08:11:35.313Z,99.80
2018-03-04T08:14:12.432Z,95.60
2018-03-04T08:16:47.584Z,93.60
2018-03-04T08:19:23.844Z,93.80
2018-03-04T08:21:58.777Z,93.20
2018-03-04T08:24:38.733Z,93.40
2018-03-04T08:27:25.874Z,90.90
2018-03-04T08:29:59.764Z,90.90
2018-03-04T08:32:34.609Z,90.60
2018-03-04T08:35:08.915Z,88.00
2018-03-04T08:37:44.318Z,81.20
2018-03-04T08:40:19.919Z,79.10
2018-03-04T08:42:55.841Z,79.30
2018-03-04T08:45:30.062Z,79.10
2018-03-04T08:48:05.619Z,79.10
2018-03-04T08:50:39.921Z,80.60
2018-03-04T08:53:16.723Z,81.50
2018-03-04T08:55:51.760Z,77.70
2018-03-04T08:58:26.247Z,77.70
2018-03-04T09:01:02.512Z,76.70
2018-03-04T09:03:37.744Z,72.10
2018-03-04T09:06:11.549Z,72.10
2018-03-04T09:08:47.296Z,74.80
2018-03-04T09:11:22.230Z,72.20
2018-03-04T09:13:57.485Z,70.20
2018-03-04T09:16:32.500Z,68.60
2018-03-04T09:19:07.853Z,68.50
2018-03-04T09:21:43.925Z,68.30
2018-03-04T09:24:18.946Z,67.40
2018-03-04T09:26:54.701Z,68.80
2018-03-04T09:29:28.587Z,68.90
2018-03-04T09:32:02.707Z,68.10
2018-03-04T09:34:37.228Z,67.90
2018-03-04T09:37:11.783Z,66.70
2018-03-04T09:39:48.883Z,66.70
2018-03-04T09:42:24.572Z,67.60
2018-03-04T09:44:59.193Z,65.50
2018-03-04T09:47:34.049Z,65.80
2018-03-04T09:50:08.740Z,62.10
2018-03-04T09:52:43.518Z,62.30
2018-03-04T09:55:19.131Z,62.30
2018-03-04T09:57:52.944Z,62.50
2018-03-04T10:00:26.948Z,64.00
2018-03-04T10:03:02.593Z,64.20
2018-03-04T10:05:37.847Z,60.30
2018-03-04T10:08:11.788Z,60.30
2018-03-04T10:10:46.517Z,59.80
2018-03-04T10:13:20.365Z,59.70
2018-03-04T10:15:56.657Z,59.40
2018-03-04T10:18:30.596Z,59.50
2018-03-04T10:21:08.868Z,61.00
2018-03-04T10:23:43.900Z,61.00
2018-03-04T10:26:18.041Z,58.80
2018-03-04T10:28:52.069Z,59.00
2018-03-04T10:31:26.948Z,58.60
2018-03-04T10:34:01.423Z,56.00
2018-03-04T10:36:35.704Z,56.00
2018-03-04T10:39:09.959Z,55.90
2018-03-04T10:41:45.536Z,56.00
2018-03-04T10:44:20.635Z,55.50
2018-03-04T10:46:54.537Z,55.40
2018-03-04T10:49:30.020Z,56.50
2018-03-04T10:52:04.715Z,56.50
2018-03-04T10:54:39.671Z,54.60
2018-03-04T10:57:13.829Z,54.50
2018-03-04T10:59:47.914Z,53.50
2018-03-04T11:02:23.404Z,54.00
2018-03-04T11:04:58.753Z,53.30
2018-03-04T11:07:34.336Z,53.50
2018-03-04T11:10:08.925Z,52.50
2018-03-04T11:12:43.719Z,52.90
2018-03-04T11:15:18.726Z,53.10
2018-03-04T11:17:53.544Z,52.80
2018-03-04T11:33:20.147Z,49.70
2018-03-04T11:35:54.045Z,49.60
2018-03-04T11:38:28.154Z,49.40
2018-03-04T11:41:02.901Z,50.20
2018-03-04T11:43:40.179Z,48.50
2018-03-04T11:46:15.230Z,49.40
2018-03-04T11:48:50.351Z,49.30
2018-03-04T11:51:26.816Z,49.40
2018-03-04T11:54:01.972Z,51.50
2018-03-04T11:56:36.763Z,51.50
2018-03-04T11:59:11.899Z,51.20
2018-03-04T12:01:46.939Z,50.80
2018-03-04T12:04:20.771Z,50.80
2018-03-04T12:06:55.798Z,49.90
2018-03-04T12:09:30.507Z,49.40
2018-03-04T12:12:06.311Z,50.80
2018-03-04T12:14:40.200Z,51.00
2018-03-04T12:17:15.302Z,50.00
2018-03-04T12:19:49.699Z,50.10
2018-03-04T12:22:24.232Z,49.70
2018-03-04T12:24:59.592Z,50.40
2018-03-04T12:27:34.567Z,50.40
2018-03-04T12:30:09.526Z,50.20
2018-03-04T12:32:43.871Z,49.50
2018-03-04T12:35:18.991Z,48.10
2018-03-04T12:37:54.644Z,48.30
2018-03-04T12:40:29.387Z,48.60
2018-03-04T12:43:04.208Z,48.60
2018-03-04T12:45:39.002Z,48.80
2018-03-04T12:48:12.927Z,48.60
2018-03-04T12:50:47.463Z,48.90
2018-03-04T12:53:22.381Z,49.00
2018-03-04T12:55:57.252Z,48.90
2018-03-04T12:58:30.907Z,51.10
2018-03-04T13:01:05.341Z,51.50
2018-03-04T13:03:40.163Z,48.90
2018-03-04T13:06:14.476Z,49.10
2018-03-04T13:08:48.520Z,49.20
2018-03-04T13:11:23.893Z,49.70
2018-03-04T13:13:57.883Z,49.30
2018-03-04T13:16:31.982Z,47.40
2018-03-04T13:19:06.576Z,47.70
2018-03-04T13:21:40.473Z,48.20
2018-03-04T13:24:14.808Z,49.60
2018-03-04T13:26:48.689Z,51.20
2018-03-04T13:29:23.445Z,52.40
2018-03-04T13:31:58.103Z,52.40
2018-03-04T13:34:32.139Z,51.60
2018-03-04T13:37:07.070Z,50.80
2018-03-04T13:39:41.092Z,50.00
2018-03-04T13:42:15.905Z,49.50
2018-03-04T13:44:50.428Z,49.50
2018-03-04T13:47:24.192Z,49.60
2018-03-04T13:49:59.592Z,48.60
2018-03-04T13:52:34.297Z,49.30
2018-03-04T13:55:13.294Z,49.10
2018-03-04T13:57:52.661Z,48.50
2018-03-04T14:00:27.375Z,47.60
2018-03-04T14:03:01.118Z,47.60
2018-03-04T14:05:35.320Z,47.00
2018-03-04T14:08:10.260Z,42.30
2018-03-04T14:10:44.473Z,42.30
2018-03-04T14:13:19.068Z,39.70
2018-03-04T14:15:53.377Z,39.60
2018-03-04T14:18:28.939Z,38.60
2018-03-04T14:21:03.654Z,40.00
2018-03-04T14:23:37.520Z,39.90
2018-03-04T14:26:12.157Z,34.60
2018-03-04T14:28:48.152Z,34.40
2018-03-04T14:31:21.942Z,33.70
2018-03-04T14:33:56.758Z,35.10
2018-03-04T14:36:30.374Z,34.90
2018-03-04T14:39:05.171Z,34.60
2018-03-04T14:41:39.114Z,34.70
2018-03-04T14:44:14.472Z,35.10
2018-03-04T14:46:49.077Z,35.20
2018-03-04T14:49:24.747Z,37.80
2018-03-04T14:51:59.446Z,38.20
2018-03-04T14:54:34.385Z,39.60
2018-03-04T14:57:08.995Z,39.60
2018-03-04T14:59:44.127Z,40.10
2018-03-04T15:02:19.165Z,41.80
2018-03-04T15:04:53.638Z,41.90
2018-03-04T15:07:28.503Z,44.60
2018-03-04T15:10:03.162Z,46.80
2018-03-04T15:12:37.468Z,46.80
2018-03-04T15:15:11.999Z,47.00
2018-03-04T15:17:46.549Z,47.00
2018-03-04T15:20:21.010Z,49.30
2018-03-04T15:22:54.834Z,49.20
2018-03-04T15:25:29.048Z,50.70
2018-03-04T15:28:03.160Z,51.50
2018-03-04T15:30:37.766Z,51.60
2018-03-04T15:33:12.390Z,50.90
2018-03-04T15:35:46.407Z,51.00
2018-03-04T15:38:20.427Z,52.00
2018-03-04T15:40:55.266Z,52.20
2018-03-04T15:43:28.955Z,52.20
2018-03-04T15:46:03.150Z,53.10
2018-03-04T15:48:38.398Z,53.70
2018-03-04T15:51:12.880Z,55.20
2018-03-04T15:53:50.903Z,54.80
2018-03-04T15:56:29.165Z,54.40
2018-03-04T15:59:04.369Z,54.90
2018-03-04T16:01:39.502Z,54.90
2018-03-04T16:04:14.341Z,53.70
2018-03-04T16:06:48.673Z,53.60
2018-03-04T16:09:24.514Z,53.70
2018-03-04T16:11:58.806Z,53.70
2018-03-04T16:14:33.536Z,54.80
2018-03-04T16:17:08.804Z,57.30
2018-03-04T16:19:43.599Z,57.70
2018-03-04T16:22:17.959Z,57.70
2018-03-04T16:24:52.647Z,54.60
2018-03-04T16:27:26.967Z,54.60
2018-03-04T16:30:01.288Z,53.70
2018-03-04T16:32:36.122Z,55.20
2018-03-04T16:35:10.223Z,55.20
2018-03-04T16:37:44.100Z,57.00
2018-03-04T16:40:18.551Z,59.80
2018-03-04T16:42:53.059Z,61.10
2018-03-04T16:45:29.030Z,61.50
2018-03-04T16:48:03.266Z,61.50
2018-03-04T16:50:37.761Z,63.30
2018-03-04T16:53:12.296Z,65.80
2018-03-04T16:55:48.932Z,67.20
2018-03-04T16:58:23.089Z,67.20
2018-03-04T17:00:57.782Z,68.20
2018-03-04T17:03:32.636Z,68.70
2018-03-04T17:06:07.536Z,69.70
2018-03-04T17:08:42.247Z,69.90
2018-03-04T17:11:16.691Z,70.40
2018-03-04T17:13:50.491Z,70.40
2018-03-04T17:16:24.405Z,70.60
2018-03-04T17:18:59.139Z,71.90
2018-03-04T17:21:33.440Z,72.00
2018-03-04T17:24:08.630Z,73.00
2018-03-04T17:26:43.253Z,73.70
2018-03-04T17:29:17.134Z,73.60
2018-03-04T17:31:51.732Z,73.90
2018-03-04T17:34:27.670Z,73.90
2018-03-04T17:37:02.369Z,74.40
2018-03-04T17:39:37.548Z,74.30
2018-03-04T17:42:12.087Z,74.30
2018-03-04T17:44:46.201Z,74.30
2018-03-04T17:47:20.720Z,74.30
2018-03-04T17:49:55.243Z,74.40
2018-03-04T17:52:29.143Z,74.50
2018-03-04T17:55:03.681Z,74.50
2018-03-04T17:57:37.655Z,74.90
2018-03-04T18:00:11.284Z,75.00
2018-03-04T18:02:45.991Z,75.20
2018-03-04T18:05:20.406Z,75.30
2018-03-04T18:07:54.836Z,75.30
2018-03-04T18:10:29.659Z,75.10
2018-03-04T18:13:04.996Z,75.20
2018-03-04T18:15:39.993Z,75.30
2018-03-04T18:18:14.754Z,75.20
2018-03-04T18:20:49.410Z,75.20
2018-03-04T18:23:23.180Z,75.10
2018-03-04T18:25:57.416Z,74.70
2018-03-04T18:28:32.080Z,74.80
2018-03-04T18:31:06.229Z,74.80
2018-03-04T18:33:40.235Z,75.00
2018-03-04T18:36:18.112Z,74.70
2018-03-04T18:38:51.785Z,74.70
2018-03-04T18:41:26.584Z,74.90
2018-03-04T18:44:01.626Z,74.90
2018-03-04T18:46:35.952Z,75.20
2018-03-04T18:49:10.438Z,76.50
2018-03-04T18:51:49.191Z,77.20
2018-03-04T18:54:29.608Z,77.90
2018-03-04T18:57:03.738Z,77.90
2018-03-04T18:59:37.569Z,78.30
2018-03-04T19:02:11.768Z,79.10
2018-03-04T19:04:47.870Z,79.30
2018-03-04T19:07:23.355Z,79.40
2018-03-04T19:09:57.268Z,79.40
2018-03-04T19:12:32.032Z,78.70
2018-03-04T19:15:07.770Z,78.70
2018-03-04T19:17:41.468Z,78.60
2018-03-04T19:20:20.160Z,78.20
2018-03-04T19:22:54.921Z,77.60
2018-03-04T19:25:31.890Z,77.50
2018-03-04T19:28:06.711Z,77.70
2018-03-04T19:30:40.728Z,77.60
2018-03-04T19:33:16.466Z,77.20
2018-03-04T19:35:50.487Z,77.20
2018-03-04T19:38:25.528Z,77.30
2018-03-04T19:40:59.799Z,77.10
2018-03-04T19:43:35.476Z,78.10
2018-03-04T19:46:10.205Z,77.90
2018-03-04T19:48:44.818Z,77.90
2018-03-04T19:51:19.664Z,78.40
2018-03-04T19:53:53.630Z,77.70
2018-03-04T19:56:29.007Z,78.30
2018-03-04T19:59:03.080Z,78.40
2018-03-04T20:01:37.331Z,78.60
2018-03-04T20:04:12.272Z,78.70
2018-03-04T20:06:46.795Z,78.50
2018-03-04T20:09:20.474Z,78.50
2018-03-04T20:11:56.939Z,79.40
2018-03-04T20:14:32.205Z,78.50
2018-03-04T20:17:07.784Z,78.40
2018-03-04T20:19:41.746Z,78.30
2018-03-04T20:22:17.404Z,77.90
2018-03-04T20:24:52.198Z,78.90
2018-03-04T20:27:27.225Z,79.70
2018-03-04T20:30:01.566Z,79.70
2018-03-04T20:32:37.503Z,79.90
2018-03-04T20:35:11.755Z,79.80
2018-03-04T20:37:45.936Z,79.50
2018-03-04T20:40:20.671Z,79.80
2018-03-04T20:42:56.027Z,80.30
2018-03-04T20:45:30.436Z,80.30
2018-03-04T20:48:05.393Z,78.90
2018-03-04T20:50:39.595Z,80.80
2018-03-04T21:06:26.051Z,82.80
2018-03-04T21:09:00.687Z,82.70
2018-03-04T21:11:35.742Z,83.00
2018-03-04T21:14:10.701Z,81.90
2018-03-04T21:16:47.604Z,83.60
2018-03-04T21:19:21.959Z,83.60
2018-03-04T21:21:59.863Z,82.90
2018-03-04T21:24:35.920Z,82.90
2018-03-04T21:27:09.980Z,83.60
2018-03-04T21:29:46.067Z,82.70
2018-03-04T21:32:21.816Z,83.30
2018-03-04T21:34:59.420Z,83.30
2018-03-04T21:37:38.423Z,84.80
2018-03-04T21:40:13.500Z,84.70
2018-03-04T21:42:51.591Z,85.40
2018-03-04T21:45:28.988Z,85.40
2018-03-04T21:48:08.217Z,85.70
2018-03-04T21:50:45.619Z,84.70
2018-03-04T21:53:20.333Z,84.40
2018-03-04T21:55:56.480Z,83.90
2018-03-04T21:58:31.016Z,85.20
2018-03-04T22:01:06.543Z,86.90
2018-03-04T22:03:40.453Z,86.90
2018-03-04T22:06:15.280Z,86.40
2018-03-04T22:08:50.329Z,86.50
2018-03-04T22:11:24.524Z,86.40
2018-03-04T22:13:59.168Z,87.40
2018-03-04T22:16:34.821Z,87.50
2018-03-04T22:19:08.807Z,87.50
2018-03-04T22:21:43.329Z,86.90
2018-03-04T22:24:19.082Z,86.60
2018-03-04T22:26:53.581Z,86.60
2018-03-04T22:29:28.336Z,88.10
2018-03-04T22:32:04.821Z,88.00
2018-03-04T22:34:39.334Z,88.60
2018-03-04T22:37:13.435Z,89.00
2018-03-04T22:39:47.156Z,87.80
2018-03-04T22:42:21.061Z,88.10
2018-03-04T22:44:55.349Z,88.10
2018-03-04T22:47:30.080Z,87.70
2018-03-04T22:50:03.987Z,88.50
2018-03-04T22:52:38.188Z,89.60
2018-03-04T22:55:12.024Z,88.50
2018-03-04T22:57:46.024Z,88.30
2018-03-04T23:00:20.142Z,88.90
2018-03-04T23:02:55.782Z,88.80
2018-03-04T23:05:30.391Z,88.20
2018-03-04T23:08:04.508Z,88.10
2018-03-04T23:10:39.255Z,88.10
2018-03-04T23:13:13.871Z,88.10
2018-03-04T23:15:48.279Z,87.60
2018-03-04T23:18:24.647Z,89.00
2018-03-04T23:20:58.464Z,89.00
2018-03-04T23:23:33.296Z,89.00
2018-03-04T23:26:07.306Z,88.30
2018-03-04T23:28:41.250Z,88.40
2018-03-04T23:31:15.434Z,89.20
2018-03-04T23:33:49.512Z,89.50
2018-03-04T23:36:24.808Z,89.60
2018-03-04T23:38:58.667Z,90.40
2018-03-04T23:41:32.653Z,90.60
2018-03-04T23:44:06.808Z,90.30
2018-03-04T23:46:42.235Z,90.50
2018-03-04T23:49:17.069Z,90.50
2018-03-04T23:51:52.312Z,90.10
2018-03-04T23:54:28.126Z,90.20
2018-03-04T23:57:01.868Z,90.20
2018-03-04T23:59:36.383Z,89.50
